Time;durP1;ratioP1;P1;durP2;ratioP2;P2;SDS_P1;SDS_P2;PMS_P1;PMS_P2;Temp;Humidity;BMP_temperature;BMP_pressure;BME280_temperature;BME280_humidity;BME280_pressure;Samples;Min_cycle;Max_cycle;Signal;HPM_P1;HPM_P2
2022/09/16 00:00:46;;;;;;;60.07;31.07;;;12.70;99.90;;;;;;4382240;28;660975;-84
2022/09/16 00:03:33;;;;;;;63.30;31.63;;;12.60;99.90;;;;;;4410484;28;661243;-84
2022/09/16 00:06:21;;;;;;;60.80;31.03;;;12.60;99.90;;;;;;4387823;28;660537;-84
2022/09/16 00:09:10;;;;;;;73.33;33.80;;;12.60;99.90;;;;;;4407962;28;662184;-85
2022/09/16 00:11:57;;;;;;;52.37;28.07;;;12.50;99.90;;;;;;4380908;28;660700;-84
2022/09/16 00:14:44;;;;;;;64.57;32.07;;;12.50;99.90;;;;;;4408274;28;660702;-85
2022/09/16 00:17:31;;;;;;;59.37;31.70;;;12.50;99.90;;;;;;4385336;28;660830;-84
2022/09/16 00:20:18;;;;;;;61.90;30.00;;;12.50;99.90;;;;;;4411871;28;661164;-84
2022/09/16 00:23:05;;;;;;;52.43;28.60;;;12.50;99.90;;;;;;4392843;28;661235;-83
2022/09/16 00:25:54;;;;;;;60.67;28.80;;;12.40;99.90;;;;;;4407307;28;660974;-85
2022/09/16 00:28:42;;;;;;;53.77;28.33;;;12.40;99.90;;;;;;4386747;28;660464;-85
2022/09/16 00:31:29;;;;;;;55.33;27.13;;;12.30;99.90;;;;;;4411223;28;660253;-84
2022/09/16 00:34:16;;;;;;;52.97;27.73;;;12.30;99.90;;;;;;4389659;28;660892;-84
2022/09/16 00:37:03;;;;;;;36.20;17.83;;;12.20;99.90;;;;;;4410342;28;661433;-85
2022/09/16 00:39:50;;;;;;;55.80;27.77;;;12.30;99.90;;;;;;4387905;28;660591;-84
2022/09/16 00:42:39;;;;;;;45.43;20.30;;;12.20;99.90;;;;;;4412671;28;660585;-84
2022/09/16 00:45:30;;;;;;;49.43;25.57;;;12.30;99.90;;;;;;4388263;28;660953;-84
2022/09/16 00:48:20;;;;;;;42.60;22.43;;;12.30;99.90;;;;;;4385403;28;661311;-84
2022/09/16 00:51:08;;;;;;;54.37;24.83;;;12.30;99.90;;;;;;4392868;28;660936;-84
2022/09/16 00:53:59;;;;;;;48.03;24.17;;;12.30;99.90;;;;;;4392155;28;660908;-84
2022/09/16 00:56:47;;;;;;;41.50;23.00;;;12.20;99.90;;;;;;4386301;28;660981;-84
2022/09/16 00:59:36;;;;;;;43.00;23.17;;;12.20;99.90;;;;;;4408165;28;660488;-84
2022/09/16 01:02:23;;;;;;;38.87;22.53;;;12.30;99.90;;;;;;4388017;28;661051;-85
2022/09/16 01:05:12;;;;;;;47.33;22.77;;;12.20;99.90;;;;;;4387594;28;661138;-84
2022/09/16 01:07:59;;;;;;;43.93;23.40;;;12.20;99.90;;;;;;4414003;28;660868;-84
2022/09/16 01:10:46;;;;;;;41.27;22.83;;;12.20;99.90;;;;;;4387414;28;660884;-84
2022/09/16 01:13:33;;;;;;;46.87;23.87;;;12.10;99.90;;;;;;4406715;28;661384;-84
2022/09/16 01:16:25;;;;;;;45.40;24.73;;;12.10;99.90;;;;;;4392547;28;660723;-84
2022/09/16 01:19:15;;;;;;;48.60;24.87;;;12.10;99.90;;;;;;4388031;28;661898;-84
2022/09/16 01:22:05;;;;;;;49.47;24.93;;;12.20;99.90;;;;;;4386828;28;661029;-84
2022/09/16 01:24:54;;;;;;;49.20;26.13;;;12.20;99.90;;;;;;4382215;28;661130;-84
2022/09/16 01:27:51;;;;;;;46.07;25.03;;;12.10;99.90;;;;;;4386814;28;660832;-85
2022/09/16 01:30:53;;;;;;;48.77;26.20;;;12.00;99.90;;;;;;4389996;28;661627;-85
2022/09/16 01:33:43;;;;;;;48.00;26.40;;;12.10;99.90;;;;;;4379807;28;660944;-84
2022/09/16 01:36:35;;;;;;;45.30;27.00;;;12.00;99.90;;;;;;4384961;28;660798;-84
2022/09/16 01:39:27;;;;;;;48.73;27.17;;;12.00;99.90;;;;;;4377308;28;661089;-84
2022/09/16 01:42:20;;;;;;;45.97;26.43;;;12.00;99.90;;;;;;4385421;28;660632;-84
2022/09/16 01:45:13;;;;;;;49.37;25.87;;;12.00;99.90;;;;;;4390819;28;660466;-84
2022/09/16 01:48:04;;;;;;;44.03;23.87;;;12.00;99.90;;;;;;4386062;28;661029;-84
2022/09/16 01:50:53;;;;;;;44.70;25.83;;;11.90;99.90;;;;;;4385529;28;660549;-84
2022/09/16 01:53:43;;;;;;;42.33;24.40;;;11.90;99.90;;;;;;4385769;28;660751;-84
2022/09/16 01:56:33;;;;;;;47.87;26.23;;;11.80;99.90;;;;;;4384240;28;660295;-85
2022/09/16 01:59:22;;;;;;;45.63;24.40;;;11.70;99.90;;;;;;4388874;28;660568;-84
2022/09/16 02:02:11;;;;;;;43.55;25.27;;;11.70;99.90;;;;;;4406685;28;660972;-84
2022/09/16 02:05:01;;;;;;;44.43;24.60;;;11.70;99.90;;;;;;4383287;28;661274;-84
2022/09/16 02:07:52;;;;;;;53.80;26.30;;;11.80;99.90;;;;;;4380809;28;661496;-85
2022/09/16 02:10:41;;;;;;;50.37;25.97;;;11.80;99.90;;;;;;4383950;28;660683;-84
2022/09/16 02:13:29;;;;;;;54.67;30.07;;;11.80;99.90;;;;;;4386449;28;661163;-84
2022/09/16 02:16:18;;;;;;;46.50;24.23;;;11.80;99.90;;;;;;4385823;28;660733;-84
2022/09/16 02:19:06;;;;;;;48.67;24.83;;;11.70;99.90;;;;;;4391707;28;661309;-84
2022/09/16 02:21:55;;;;;;;50.23;27.50;;;11.70;99.90;;;;;;4405346;28;661145;-84
2022/09/16 02:24:42;;;;;;;51.33;25.80;;;11.60;99.90;;;;;;4383871;28;661629;-84
2022/09/16 02:27:30;;;;;;;51.03;23.73;;;11.60;99.90;;;;;;4408206;28;660618;-84
2022/09/16 02:30:18;;;;;;;43.17;23.98;;;11.60;99.90;;;;;;4410631;28;660944;-85
2022/09/16 02:33:07;;;;;;;49.27;22.77;;;11.50;99.90;;;;;;4387840;28;661527;-84
2022/09/16 02:35:55;;;;;;;43.27;21.70;;;11.40;99.90;;;;;;4410877;28;660625;-84
2022/09/16 02:38:45;;;;;;;35.97;20.70;;;11.40;99.90;;;;;;4383165;28;661871;-85
2022/09/16 02:41:32;;;;;;;41.90;21.27;;;11.30;99.90;;;;;;4383484;28;661393;-85
2022/09/16 02:44:19;;;;;;;39.63;19.57;;;11.20;99.90;;;;;;4412546;28;660265;-85
2022/09/16 02:47:09;;;;;;;34.23;18.23;;;11.20;99.90;;;;;;4388450;28;660520;-85
2022/09/16 02:49:57;;;;;;;33.90;18.80;;;11.20;99.90;;;;;;4386287;28;660818;-84
2022/09/16 02:52:46;;;;;;;34.00;18.10;;;11.10;99.90;;;;;;4409064;28;661674;-85
2022/09/16 02:55:38;;;;;;;33.20;17.77;;;11.10;99.90;;;;;;4383368;28;660956;-84
2022/09/16 02:58:25;;;;;;;37.67;17.57;;;11.10;99.90;;;;;;4364102;28;661751;-85
2022/09/16 03:01:12;;;;;;;37.05;16.92;;;11.10;99.90;;;;;;4404583;28;661416;-85
2022/09/16 03:03:59;;;;;;;35.77;15.80;;;11.10;99.90;;;;;;4411785;28;661928;-85
2022/09/16 03:06:47;;;;;;;31.10;14.97;;;11.10;99.90;;;;;;4395634;28;660734;-84
2022/09/16 03:09:34;;;;;;;28.20;14.17;;;11.10;99.90;;;;;;4413431;28;660765;-84
2022/09/16 03:12:45;;;;;;;19.60;11.13;;;11.10;99.90;;;;;;4382848;28;660546;-84
2022/09/16 03:15:36;;;;;;;24.30;14.17;;;11.10;99.90;;;;;;4382979;28;660511;-84
2022/09/16 03:18:48;;;;;;;24.03;14.07;;;11.10;99.90;;;;;;4382228;28;660727;-85
2022/09/16 03:21:38;;;;;;;26.07;13.67;;;10.90;99.90;;;;;;4372740;28;661266;-85
2022/09/16 03:24:28;;;;;;;28.13;14.73;;;10.90;99.90;;;;;;4382899;28;660447;-85
2022/09/16 03:27:16;;;;;;;27.47;15.87;;;10.80;99.90;;;;;;4387374;28;661000;-84
2022/09/16 03:30:06;;;;;;;26.00;14.87;;;10.80;99.90;;;;;;4405371;28;660932;-85
2022/09/16 03:32:54;;;;;;;26.50;15.33;;;10.70;99.90;;;;;;4388731;28;661390;-84
2022/09/16 03:35:43;;;;;;;32.40;14.23;;;10.80;99.90;;;;;;4377949;28;661384;-84
2022/09/16 03:38:31;;;;;;;34.00;14.67;;;10.70;99.90;;;;;;4385711;28;660740;-85
2022/09/16 03:41:18;;;;;;;22.57;14.13;;;10.70;99.90;;;;;;4404661;28;661695;-85
2022/09/16 03:44:05;;;;;;;27.73;14.00;;;10.60;99.90;;;;;;4392962;28;660916;-84
2022/09/16 03:46:54;;;;;;;28.67;15.43;;;10.60;99.90;;;;;;4411786;28;660868;-84
2022/09/16 03:49:41;;;;;;;25.27;14.53;;;10.60;99.90;;;;;;4380102;28;661256;-84
2022/09/16 03:52:28;;;;;;;32.37;15.50;;;10.50;99.90;;;;;;4408970;28;661081;-84
2022/09/16 03:55:16;;;;;;;28.15;14.02;;;10.60;99.90;;;;;;4388306;28;660620;-84
2022/09/16 03:58:03;;;;;;;25.23;12.97;;;10.60;99.90;;;;;;4408168;28;660874;-85
2022/09/16 04:00:51;;;;;;;28.07;14.03;;;10.50;99.90;;;;;;4380975;28;660553;-84
2022/09/16 04:03:39;;;;;;;23.00;14.43;;;10.60;99.90;;;;;;4406247;28;660824;-85
2022/09/16 04:06:26;;;;;;;24.50;13.27;;;10.60;99.90;;;;;;4386865;28;660737;-84
2022/09/16 04:09:15;;;;;;;32.53;17.17;;;10.60;99.90;;;;;;4407290;28;660954;-83
2022/09/16 04:12:02;;;;;;;32.13;18.97;;;10.60;99.90;;;;;;4385170;28;660708;-83
2022/09/16 04:14:49;;;;;;;32.67;17.90;;;10.50;99.90;;;;;;4406884;28;661001;-84
2022/09/16 04:17:36;;;;;;;29.80;17.67;;;10.50;99.90;;;;;;4382736;28;660705;-84
2022/09/16 04:20:25;;;;;;;27.23;15.20;;;10.40;99.90;;;;;;4401395;28;660892;-83
2022/09/16 04:23:12;;;;;;;23.67;13.80;;;10.40;99.90;;;;;;4390126;28;661423;-84
2022/09/16 04:26:00;;;;;;;26.27;12.97;;;10.40;99.90;;;;;;4413730;28;660671;-83
2022/09/16 04:28:47;;;;;;;30.50;13.53;;;10.30;99.90;;;;;;4386728;28;661050;-84
2022/09/16 04:31:35;;;;;;;26.03;12.07;;;10.30;99.90;;;;;;4397129;28;661424;-84
2022/09/16 04:34:22;;;;;;;20.25;12.32;;;10.30;99.90;;;;;;4413837;28;662068;-84
2022/09/16 04:37:11;;;;;;;28.93;13.00;;;10.20;99.90;;;;;;4401627;28;660272;-84
2022/09/16 04:39:58;;;;;;;23.73;13.23;;;10.10;99.90;;;;;;4384899;28;660642;-84
2022/09/16 04:42:49;;;;;;;25.97;14.60;;;10.10;99.90;;;;;;4390305;28;661060;-84
2022/09/16 04:45:36;;;;;;;28.43;14.77;;;10.00;99.90;;;;;;4385825;28;660507;-84
2022/09/16 04:48:24;;;;;;;26.13;14.30;;;10.00;99.90;;;;;;4407383;28;662069;-84
2022/09/16 04:51:12;;;;;;;29.73;15.40;;;10.00;99.90;;;;;;4387233;28;660566;-83
2022/09/16 04:54:01;;;;;;;28.47;13.90;;;10.00;99.90;;;;;;4407800;28;660990;-84
2022/09/16 04:56:48;;;;;;;31.17;17.07;;;10.00;99.90;;;;;;4383839;28;661155;-84
2022/09/16 04:59:35;;;;;;;41.90;17.97;;;10.00;99.90;;;;;;4386810;28;660810;-84
2022/09/16 05:02:22;;;;;;;25.57;11.83;;;10.00;99.90;;;;;;4411118;28;661469;-83
2022/09/16 05:05:10;;;;;;;23.67;14.00;;;10.20;99.90;;;;;;4400719;28;660956;-84
2022/09/16 05:07:57;;;;;;;23.77;13.67;;;10.30;99.90;;;;;;4383726;28;661128;-83
2022/09/16 05:10:46;;;;;;;23.87;13.63;;;10.40;99.90;;;;;;4408164;28;661095;-84
2022/09/16 05:13:33;;;;;;;25.10;12.00;;;10.50;99.90;;;;;;4379132;28;661383;-84
2022/09/16 05:16:21;;;;;;;15.88;10.48;;;10.70;99.90;;;;;;4384257;28;660649;-84
2022/09/16 05:19:10;;;;;;;19.73;10.73;;;10.90;99.90;;;;;;4406968;28;660617;-84
2022/09/16 05:21:57;;;;;;;18.43;10.47;;;11.00;99.90;;;;;;4381184;28;661259;-84
2022/09/16 05:24:45;;;;;;;18.97;11.17;;;11.10;99.90;;;;;;4406368;28;660513;-84
2022/09/16 05:27:34;;;;;;;17.80;10.97;;;11.20;99.90;;;;;;4381422;28;661332;-84
2022/09/16 05:30:21;;;;;;;23.43;11.27;;;11.30;99.90;;;;;;4384013;28;660804;-84
2022/09/16 05:33:09;;;;;;;21.17;10.73;;;11.40;99.90;;;;;;4411400;28;660502;-83
2022/09/16 05:35:56;;;;;;;22.27;12.93;;;11.40;99.90;;;;;;4385997;28;661279;-83
2022/09/16 05:38:43;;;;;;;24.83;14.40;;;11.30;99.90;;;;;;4406186;28;660643;-83
2022/09/16 05:41:30;;;;;;;40.10;22.10;;;11.30;99.90;;;;;;4386834;28;660747;-83
2022/09/16 05:44:19;;;;;;;37.63;22.90;;;11.30;99.90;;;;;;4404913;28;661200;-83
2022/09/16 05:47:06;;;;;;;40.60;25.00;;;11.40;99.90;;;;;;4388468;28;660735;-83
2022/09/16 05:49:54;;;;;;;44.50;24.43;;;11.40;99.90;;;;;;4410100;28;662646;-83
2022/09/16 05:52:41;;;;;;;42.07;24.20;;;11.40;99.90;;;;;;4383555;28;660546;-83
2022/09/16 05:55:28;;;;;;;42.60;22.08;;;11.40;99.90;;;;;;4410348;28;660684;-83
2022/09/16 05:58:15;;;;;;;38.87;22.67;;;11.50;99.90;;;;;;4387857;28;660693;-83
2022/09/16 06:01:05;;;;;;;45.80;22.67;;;11.40;99.90;;;;;;4404621;28;660968;-83
2022/09/16 06:03:53;;;;;;;41.13;21.50;;;11.50;99.90;;;;;;4386411;28;662165;-82
2022/09/16 06:06:41;;;;;;;44.40;22.50;;;11.70;99.90;;;;;;4382557;28;661020;-83
2022/09/16 06:09:29;;;;;;;38.53;22.17;;;11.80;99.90;;;;;;4402952;28;660931;-84
2022/09/16 06:12:16;;;;;;;41.70;21.88;;;11.80;99.90;;;;;;4380863;28;660868;-83
2022/09/16 06:15:03;;;;;;;42.63;22.27;;;11.90;99.90;;;;;;4405475;28;661449;-82
2022/09/16 06:17:52;;;;;;;41.40;24.13;;;12.00;99.90;;;;;;4383636;28;661105;-83
2022/09/16 06:20:39;;;;;;;38.97;25.10;;;12.10;99.90;;;;;;4403721;28;660677;-82
2022/09/16 06:23:26;;;;;;;42.92;22.77;;;12.10;99.90;;;;;;4379993;28;661022;-83
2022/09/16 06:26:14;;;;;;;42.28;22.45;;;12.20;99.90;;;;;;4410888;28;661219;-82
2022/09/16 06:29:01;;;;;;;45.30;24.27;;;12.40;99.90;;;;;;4382876;28;661095;-83
2022/09/16 06:31:48;;;;;;;35.37;22.27;;;12.10;99.90;;;;;;4407278;28;660789;-83
2022/09/16 06:34:37;;;;;;;34.70;20.83;;;12.20;99.90;;;;;;4386282;28;660734;-83
2022/09/16 06:37:24;;;;;;;42.53;23.87;;;12.30;99.90;;;;;;4406271;28;660621;-83
2022/09/16 06:40:12;;;;;;;43.17;23.83;;;12.20;99.90;;;;;;4383937;28;661827;-84
2022/09/16 06:42:59;;;;;;;38.70;22.40;;;12.60;99.90;;;;;;4403566;28;661590;-85
2022/09/16 06:45:46;;;;;;;37.60;21.80;;;12.90;99.90;;;;;;4382431;28;660307;-85
2022/09/16 06:48:33;;;;;;;37.40;21.47;;;13.20;99.90;;;;;;4410153;28;660973;-85
2022/09/16 06:51:22;;;;;;;28.75;19.13;;;13.20;99.90;;;;;;4386210;28;660798;-84
2022/09/16 06:54:10;;;;;;;31.53;19.27;;;13.20;99.90;;;;;;4409461;28;660291;-85
2022/09/16 06:56:57;;;;;;;30.00;16.63;;;13.20;99.90;;;;;;4385942;28;661799;-85
2022/09/16 06:59:44;;;;;;;26.43;16.67;;;13.30;99.90;;;;;;4405549;28;660598;-85
2022/09/16 07:02:31;;;;;;;26.17;17.20;;;13.50;99.90;;;;;;4381106;28;660780;-86
2022/09/16 07:05:18;;;;;;;19.40;11.07;;;13.50;99.90;;;;;;4403229;28;660830;-85
2022/09/16 07:08:07;;;;;;;26.80;14.80;;;13.40;99.90;;;;;;4381201;28;660754;-83
2022/09/16 07:10:58;;;;;;;25.50;14.03;;;13.40;99.90;;;;;;4403950;28;661015;-83
2022/09/16 07:13:46;;;;;;;24.60;15.27;;;13.50;99.90;;;;;;4369524;28;660891;-84
2022/09/16 07:16:34;;;;;;;28.00;16.10;;;13.50;99.90;;;;;;4399952;28;661452;-84
2022/09/16 07:19:21;;;;;;;21.53;15.73;;;13.60;99.90;;;;;;4385057;28;660627;-84
2022/09/16 07:22:10;;;;;;;25.02;13.82;;;13.70;99.90;;;;;;4402799;28;661009;-83
2022/09/16 07:24:58;;;;;;;23.13;14.73;;;13.50;99.90;;;;;;4377391;28;661150;-84
2022/09/16 07:27:45;;;;;;;22.50;13.33;;;13.50;99.90;;;;;;4385860;28;660646;-84
2022/09/16 07:30:33;;;;;;;19.80;13.17;;;13.70;99.90;;;;;;4401218;28;661344;-84
2022/09/16 07:33:20;;;;;;;19.87;10.17;;;14.20;99.90;;;;;;4384625;28;660817;-84
2022/09/16 07:36:08;;;;;;;18.20;10.97;;;13.90;99.90;;;;;;4406656;28;661455;-84
2022/09/16 07:38:57;;;;;;;12.73;7.63;;;13.70;99.90;;;;;;4379143;28;660845;-83
2022/09/16 07:41:47;;;;;;;15.87;9.60;;;13.80;99.90;;;;;;4404365;28;659627;-84
2022/09/16 07:44:34;;;;;;;18.97;11.87;;;14.00;99.90;;;;;;4380401;28;659983;-83
2022/09/16 07:47:21;;;;;;;17.70;8.93;;;14.00;99.90;;;;;;4383343;28;662186;-83
2022/09/16 07:50:10;;;;;;;12.93;8.13;;;14.00;99.90;;;;;;4405910;28;660886;-83
2022/09/16 07:52:57;;;;;;;14.40;8.10;;;13.90;99.90;;;;;;4378955;28;661125;-83
2022/09/16 07:55:44;;;;;;;19.30;9.23;;;13.80;99.90;;;;;;4407025;28;659871;-85
2022/09/16 07:58:32;;;;;;;13.70;8.37;;;13.70;99.90;;;;;;4382883;28;659649;-84
2022/09/16 08:01:20;;;;;;;12.77;8.13;;;13.70;99.90;;;;;;4397612;28;660950;-84
2022/09/16 08:04:07;;;;;;;15.13;8.27;;;13.70;99.90;;;;;;4407854;28;659868;-84
2022/09/16 08:06:54;;;;;;;12.53;8.00;;;13.60;99.90;;;;;;4409849;28;659870;-85
2022/09/16 08:09:42;;;;;;;13.30;8.67;;;13.30;99.90;;;;;;4379674;28;661155;-85
2022/09/16 08:12:31;;;;;;;17.87;9.63;;;13.30;99.90;;;;;;4405707;28;660461;-84
2022/09/16 08:15:19;;;;;;;18.00;9.57;;;13.10;99.90;;;;;;4378865;28;660439;-84
2022/09/16 08:18:07;;;;;;;11.57;7.60;;;13.20;99.90;;;;;;4382266;28;659912;-85
2022/09/16 08:20:54;;;;;;;16.73;9.53;;;13.50;99.90;;;;;;4403888;28;659698;-84
2022/09/16 08:23:41;;;;;;;13.43;9.67;;;13.50;99.90;;;;;;4377953;28;659443;-84
2022/09/16 08:26:28;;;;;;;18.00;9.90;;;13.50;99.90;;;;;;4406820;28;660414;-83
2022/09/16 08:29:15;;;;;;;16.87;10.13;;;13.70;99.90;;;;;;4382845;28;659720;-84
2022/09/16 08:32:04;;;;;;;18.73;10.27;;;14.20;99.90;;;;;;4404297;28;660950;-84
2022/09/16 08:34:52;;;;;;;16.93;9.47;;;14.70;99.90;;;;;;4383215;28;661730;-84
2022/09/16 08:37:39;;;;;;;21.77;10.07;;;14.70;99.90;;;;;;4403659;28;659531;-85
2022/09/16 08:40:26;;;;;;;16.87;9.80;;;14.00;99.90;;;;;;4381427;28;660965;-83
2022/09/16 08:43:15;;;;;;;17.33;9.60;;;14.30;99.90;;;;;;4410581;28;660971;-84
2022/09/16 08:46:08;;;;;;;12.47;8.80;;;14.30;99.90;;;;;;4385596;28;659351;-86
2022/09/16 08:48:59;;;;;;;15.37;9.20;;;14.90;99.90;;;;;;4384717;28;661249;-84
2022/09/16 08:51:46;;;;;;;15.38;7.82;;;15.10;99.90;;;;;;4387782;28;659624;-84
2022/09/16 08:54:37;;;;;;;14.07;6.97;;;15.80;99.90;;;;;;4404586;28;659973;-82
2022/09/16 08:57:25;;;;;;;12.57;6.97;;;16.10;99.90;;;;;;4387126;28;659838;-84
2022/09/16 09:00:15;;;;;;;8.67;5.47;;;15.80;99.90;;;;;;4387485;28;659801;-85
2022/09/16 09:03:07;;;;;;;9.07;5.33;;;15.70;99.90;;;;;;4384508;28;659435;-84
2022/09/16 09:05:56;;;;;;;10.67;5.00;;;15.40;99.90;;;;;;4386931;28;658603;-84
2022/09/16 09:08:51;;;;;;;7.10;4.13;;;15.60;99.90;;;;;;4386321;28;660316;-85
2022/09/16 09:11:42;;;;;;;10.87;4.00;;;15.60;99.90;;;;;;4387588;28;658550;-85
2022/09/16 09:14:34;;;;;;;9.23;4.40;;;15.50;99.90;;;;;;4383302;28;661019;-84
2022/09/16 09:17:24;;;;;;;8.00;4.25;;;15.60;99.90;;;;;;4386212;28;659274;-86
2022/09/16 09:20:16;;;;;;;7.83;4.00;;;15.80;99.90;;;;;;4385671;28;659428;-85
2022/09/16 09:23:18;;;;;;;6.90;4.00;;;15.10;99.90;;;;;;4388558;28;658941;-86
2022/09/16 09:26:08;;;;;;;6.07;4.00;;;15.20;99.90;;;;;;4366363;28;658534;-84
2022/09/16 09:29:06;;;;;;;10.00;4.00;;;15.50;99.90;;;;;;4387900;28;659019;-85
2022/09/16 09:31:57;;;;;;;7.10;4.00;;;16.10;99.90;;;;;;4387833;28;659919;-84
2022/09/16 09:34:53;;;;;;;5.97;3.57;;;15.60;99.90;;;;;;4386941;28;658710;-85
2022/09/16 09:38:15;;;;;;;9.23;3.10;;;16.30;99.90;;;;;;4388617;28;658608;-84
2022/09/16 09:41:05;;;;;;;6.87;3.97;;;16.50;99.90;;;;;;4352044;28;658772;-85
2022/09/16 09:43:54;;;;;;;7.23;3.30;;;16.20;99.90;;;;;;4386519;28;658993;-86
2022/09/16 09:46:42;;;;;;;7.63;3.30;;;16.60;99.90;;;;;;4386019;28;659045;-84
2022/09/16 09:49:32;;;;;;;5.10;3.30;;;16.60;99.90;;;;;;4403781;28;658470;-85
2022/09/16 09:52:23;;;;;;;4.13;2.03;;;16.20;99.90;;;;;;4404885;28;659013;-84
2022/09/16 09:55:16;;;;;;;4.80;2.57;;;16.20;99.90;;;;;;4398052;28;659229;-85
2022/09/16 09:58:20;;;;;;;8.63;2.93;;;15.80;99.90;;;;;;4386267;28;658718;-85
2022/09/16 10:01:08;;;;;;;3.07;2.13;;;15.80;99.90;;;;;;4379046;28;659071;-85
2022/09/16 10:03:56;;;;;;;4.43;2.60;;;15.80;99.90;;;;;;4395842;28;658695;-85
2022/09/16 10:06:44;;;;;;;3.60;2.60;;;15.80;99.90;;;;;;4416256;28;658536;-85
2022/09/16 10:09:32;;;;;;;5.20;2.43;;;15.40;99.90;;;;;;4386597;28;658885;-84
2022/09/16 10:12:31;;;;;;;4.30;2.33;;;15.50;99.90;;;;;;4410600;28;658653;-84
2022/09/16 10:15:22;;;;;;;3.83;2.47;;;15.50;99.90;;;;;;4391448;28;659006;-85
2022/09/16 10:18:13;;;;;;;4.07;2.43;;;15.60;99.90;;;;;;4383435;28;659080;-85
2022/09/16 10:21:03;;;;;;;3.67;2.33;;;15.50;99.90;;;;;;4395986;28;658916;-85
2022/09/16 10:23:54;;;;;;;10.80;2.47;;;15.50;99.90;;;;;;4388615;28;658703;-85
2022/09/16 10:26:41;;;;;;;4.50;2.70;;;15.90;99.90;;;;;;4380773;28;659483;-84
2022/09/16 10:29:29;;;;;;;9.73;3.37;;;16.10;99.90;;;;;;4407413;28;658832;-84
2022/09/16 10:32:17;;;;;;;5.80;2.80;;;16.00;99.90;;;;;;4385912;28;658799;-85
2022/09/16 10:35:07;;;;;;;7.03;3.27;;;15.50;99.90;;;;;;4399377;28;661088;-85
2022/09/16 10:37:55;;;;;;;4.50;3.50;;;15.00;99.90;;;;;;4410581;28;658652;-84
2022/09/16 10:40:51;;;;;;;4.70;2.67;;;14.30;99.90;;;;;;4385319;28;659288;-84
2022/09/16 10:43:39;;;;;;;7.37;3.17;;;13.80;99.90;;;;;;4385542;28;658589;-84
2022/09/16 10:46:27;;;;;;;8.13;3.77;;;13.50;99.90;;;;;;4383961;28;658939;-84
2022/09/16 10:49:15;;;;;;;9.00;3.60;;;13.30;99.90;;;;;;4412769;28;658750;-83
2022/09/16 10:52:14;;;;;;;6.23;4.10;;;13.10;99.90;;;;;;4386816;28;659572;-85
2022/09/16 10:55:10;;;;;;;7.20;4.90;;;13.10;99.90;;;;;;4386072;28;658649;-85
2022/09/16 10:58:07;;;;;;;5.67;4.50;;;13.40;99.90;;;;;;4386315;28;659321;-85
2022/09/16 11:01:01;;;;;;;10.50;5.20;;;13.40;99.90;;;;;;4385376;28;658419;-85
2022/09/16 11:04:10;;;;;;;7.67;5.20;;;13.80;99.90;;;;;;4382602;28;660377;-85
2022/09/16 11:07:05;;;;;;;10.03;6.27;;;14.00;99.90;;;;;;4383177;28;659204;-85
2022/09/16 11:09:57;;;;;;;11.57;7.07;;;13.70;99.90;;;;;;4379676;28;660056;-86
2022/09/16 11:13:00;;;;;;;8.23;7.03;;;13.50;99.90;;;;;;4384185;28;659814;-85
2022/09/16 11:15:56;;;;;;;11.80;7.87;;;13.50;99.90;;;;;;4385377;28;658798;-83
2022/09/16 11:18:53;;;;;;;10.77;7.13;;;13.60;99.90;;;;;;4383076;28;659467;-83
2022/09/16 11:21:54;;;;;;;11.87;7.33;;;13.50;99.90;;;;;;4367267;28;660029;-85
2022/09/16 11:24:55;;;;;;;14.83;8.47;;;13.70;99.90;;;;;;4356017;28;659884;-85
2022/09/16 11:27:50;;;;;;;12.47;7.53;;;13.50;99.90;;;;;;4387092;28;659350;-85
2022/09/16 11:30:40;;;;;;;10.77;7.50;;;13.30;99.90;;;;;;4388936;28;659834;-85
2022/09/16 11:33:31;;;;;;;6.67;5.37;;;13.30;99.90;;;;;;4381197;28;660332;-86
2022/09/16 11:36:30;;;;;;;9.37;5.00;;;13.30;99.90;;;;;;4388525;28;659262;-85
2022/09/16 11:39:35;;;;;;;14.43;4.80;;;13.30;99.90;;;;;;4386161;28;658487;-85
2022/09/16 11:42:27;;;;;;;10.23;5.60;;;13.00;99.90;;;;;;4376945;28;659946;-84
2022/09/16 11:45:25;;;;;;;5.80;4.57;;;12.80;99.90;;;;;;4385499;28;660576;-84
2022/09/16 11:48:30;;;;;;;7.87;3.63;;;12.70;99.90;;;;;;4386465;28;658328;-85
2022/09/16 11:51:32;;;;;;;5.50;3.43;;;12.70;99.90;;;;;;4385497;28;658846;-86
2022/09/16 11:54:32;;;;;;;6.78;4.15;;;12.80;99.90;;;;;;4381734;28;658840;-85
2022/09/16 11:57:20;;;;;;;5.47;4.47;;;12.80;99.90;;;;;;4406085;28;659136;-85
2022/09/16 12:00:11;;;;;;;6.80;4.10;;;13.10;99.90;;;;;;4390456;28;659061;-85
2022/09/16 12:03:00;;;;;;;4.83;4.17;;;13.10;99.90;;;;;;4386115;28;658817;-85
2022/09/16 12:05:52;;;;;;;7.00;4.30;;;13.10;99.90;;;;;;4388270;28;658830;-85
2022/09/16 12:08:48;;;;;;;6.23;4.00;;;13.10;99.90;;;;;;4383350;28;658395;-85
2022/09/16 12:11:38;;;;;;;6.50;3.50;;;12.80;99.90;;;;;;4382790;28;659413;-85
2022/09/16 12:14:28;;;;;;;6.70;3.93;;;12.90;99.90;;;;;;4384285;28;658600;-84
2022/09/16 12:17:17;;;;;;;4.93;3.50;;;13.00;99.90;;;;;;4385961;28;659519;-85
2022/09/16 12:20:06;;;;;;;5.40;3.00;;;13.10;99.90;;;;;;4412143;28;658562;-85
2022/09/16 12:22:55;;;;;;;6.70;3.50;;;13.10;99.90;;;;;;4390770;28;659296;-85
2022/09/16 12:25:45;;;;;;;6.30;3.90;;;13.10;99.90;;;;;;4385547;28;659450;-84
2022/09/16 12:28:36;;;;;;;4.63;4.00;;;13.20;99.90;;;;;;4386038;28;658855;-85
2022/09/16 12:31:26;;;;;;;6.87;4.00;;;13.50;99.90;;;;;;4390470;28;659872;-85
2022/09/16 12:34:15;;;;;;;4.90;4.40;;;13.90;99.90;;;;;;4379996;28;658747;-85
2022/09/16 12:37:12;;;;;;;4.77;4.07;;;14.60;99.90;;;;;;4384022;28;660005;-85
2022/09/16 12:39:59;;;;;;;9.17;3.77;;;15.50;99.90;;;;;;4384528;28;658647;-85
2022/09/16 12:43:29;;;;;;;7.63;4.10;;;16.30;99.90;;;;;;4384400;28;658555;-85
2022/09/16 12:46:33;;;;;;;3.97;2.80;;;16.60;99.90;;;;;;4352315;28;658643;-86
2022/09/16 12:50:01;;;;;;;7.43;3.13;;;16.80;99.90;;;;;;4384706;28;659422;-85
2022/09/16 12:53:27;;;;;;;4.70;3.07;;;17.50;99.90;;;;;;4362985;28;659058;-85
2022/09/16 12:56:16;;;;;;;5.73;2.43;;;17.50;99.90;;;;;;4390985;28;658363;-85
2022/09/16 12:59:40;;;;;;;5.63;2.80;;;17.10;99.90;;;;;;4391336;28;659526;-85
2022/09/16 13:02:32;;;;;;;4.43;2.90;;;16.50;99.90;;;;;;4364689;28;659147;-85
2022/09/16 13:05:24;;;;;;;4.23;2.80;;;16.40;99.90;;;;;;4404945;28;659147;-85
2022/09/16 13:08:20;;;;;;;4.80;3.37;;;16.50;99.90;;;;;;4385468;28;658574;-85
2022/09/16 13:11:14;;;;;;;4.17;3.43;;;16.10;99.90;;;;;;4383090;28;659601;-83
2022/09/16 13:14:01;;;;;;;4.07;3.20;;;15.60;99.90;;;;;;4387637;28;658663;-84
2022/09/16 13:16:53;;;;;;;4.67;3.43;;;16.00;99.90;;;;;;4421685;28;658314;-84
2022/09/16 13:19:45;;;;;;;5.93;3.80;;;16.10;99.90;;;;;;4401384;28;658447;-84
2022/09/16 13:22:36;;;;;;;6.30;4.00;;;15.30;99.90;;;;;;4383091;28;660021;-84
2022/09/16 13:25:24;;;;;;;4.23;3.77;;;15.10;99.90;;;;;;4385585;28;659232;-84
2022/09/16 13:28:27;;;;;;;5.20;4.17;;;15.30;99.90;;;;;;4387712;28;659411;-84
2022/09/16 13:31:18;;;;;;;6.83;4.50;;;15.10;99.90;;;;;;4386290;28;658727;-84
2022/09/16 13:34:14;;;;;;;7.67;5.33;;;15.00;99.90;;;;;;4386969;28;658562;-84
2022/09/16 13:37:03;;;;;;;8.87;4.87;;;15.10;99.90;;;;;;4385234;28;658647;-85
2022/09/16 13:39:50;;;;;;;7.17;2.80;;;15.60;99.90;;;;;;4389554;28;658361;-84
2022/09/16 13:42:37;;;;;;;4.43;3.50;;;15.80;99.90;;;;;;4410384;28;658636;-84
2022/09/16 13:45:32;;;;;;;4.87;3.37;;;15.90;99.90;;;;;;4410782;28;659512;-84
2022/09/16 13:48:21;;;;;;;7.20;3.50;;;15.90;99.90;;;;;;4382665;28;658443;-83
2022/09/16 13:51:14;;;;;;;5.47;3.50;;;16.50;99.90;;;;;;4385535;28;659290;-85
2022/09/16 13:54:03;;;;;;;7.60;4.20;;;17.00;99.90;;;;;;4388738;28;659145;-85
2022/09/16 13:57:01;;;;;;;6.90;4.20;;;16.60;99.90;;;;;;4386464;28;658996;-85
2022/09/16 14:00:04;;;;;;;8.33;4.10;;;16.30;99.90;;;;;;4387415;28;658909;-86
2022/09/16 14:03:24;;;;;;;8.77;3.73;;;15.90;99.90;;;;;;4385786;28;658588;-84
2022/09/16 14:06:35;;;;;;;6.17;3.73;;;15.80;99.90;;;;;;4386444;28;659108;-84
2022/09/16 14:09:28;;;;;;;4.30;3.30;;;15.80;99.90;;;;;;4387797;28;658830;-85
2022/09/16 14:12:19;;;;;;;8.57;3.30;;;15.80;99.90;;;;;;4381722;28;658558;-85
2022/09/16 14:15:07;;;;;;;4.30;3.33;;;15.60;99.90;;;;;;4383581;28;658956;-84
2022/09/16 14:17:57;;;;;;;6.50;3.70;;;15.80;99.90;;;;;;4406982;28;658617;-84
2022/09/16 14:20:53;;;;;;;7.43;3.37;;;16.00;99.90;;;;;;4386121;28;658937;-84
2022/09/16 14:23:40;;;;;;;6.77;3.73;;;16.00;99.90;;;;;;4370875;28;659288;-83